Time;durP1;ratioP1;P1;durP2;ratioP2;P2;SDS_P1;SDS_P2;PMS_P1;PMS_P2;Temp;Humidity;BMP_temperature;BMP_pressure;BME280_temperature;BME280_humidity;BME280_pressure;Samples;Min_cycle;Max_cycle;Signal;HPM_P1;HPM_P2
2022/10/16 00:01:24;;;;;;;7.40;3.50;;;12.70;99.90;;;;;;5011430;28;20124;-31
2022/10/16 00:03:50;;;;;;;5.45;2.88;;;12.60;99.90;;;;;;5032739;28;20048;-31
2022/10/16 00:06:18;;;;;;;3.67;2.63;;;12.60;99.90;;;;;;5012003;28;20038;-33
2022/10/16 00:08:45;;;;;;;5.60;3.00;;;12.60;99.90;;;;;;5008432;28;20059;-32
2022/10/16 00:11:16;;;;;;;6.13;3.22;;;12.60;99.90;;;;;;5002938;28;20077;-31
2022/10/16 00:13:43;;;;;;;5.43;2.83;;;12.60;99.90;;;;;;5010744;28;20506;-31
2022/10/16 00:16:11;;;;;;;5.68;2.80;;;12.60;99.90;;;;;;5004656;28;20049;-31
2022/10/16 00:18:37;;;;;;;5.57;2.95;;;12.60;99.90;;;;;;5012643;28;20044;-30
2022/10/16 00:21:08;;;;;;;5.57;2.95;;;12.60;99.90;;;;;;5009070;28;20046;-33
2022/10/16 00:23:35;;;;;;;5.80;2.80;;;12.60;99.90;;;;;;5008525;28;20042;-30
2022/10/16 00:26:05;;;;;;;4.82;3.08;;;12.60;99.90;;;;;;5014035;28;20095;-32
2022/10/16 00:28:31;;;;;;;4.95;2.80;;;12.60;99.90;;;;;;5007106;28;20431;-31
2022/10/16 00:30:57;;;;;;;5.15;2.92;;;12.50;99.90;;;;;;5029532;28;20042;-31
2022/10/16 00:33:23;;;;;;;5.82;2.72;;;12.50;99.90;;;;;;5003305;28;20045;-30
2022/10/16 00:35:50;;;;;;;7.53;3.70;;;12.50;99.90;;;;;;5004631;28;20033;-32
2022/10/16 00:38:16;;;;;;;8.60;3.83;;;12.50;99.90;;;;;;5005101;28;20102;-31
2022/10/16 00:40:42;;;;;;;6.15;3.45;;;12.50;99.90;;;;;;5007111;28;20038;-30
2022/10/16 00:43:37;;;;;;;8.63;3.53;;;12.40;99.90;;;;;;5003158;28;20038;-32
2022/10/16 00:46:10;;;;;;;5.93;3.28;;;12.40;99.90;;;;;;5020965;28;20052;-31
2022/10/16 00:48:36;;;;;;;4.45;3.17;;;12.30;99.90;;;;;;5017488;28;20045;-30
2022/10/16 00:51:02;;;;;;;7.15;3.60;;;12.30;99.90;;;;;;5013282;28;20064;-31
2022/10/16 00:53:28;;;;;;;6.10;3.08;;;12.30;99.90;;;;;;5009847;28;20045;-33
2022/10/16 00:55:54;;;;;;;7.72;3.30;;;12.30;99.90;;;;;;5004045;28;20507;-30
2022/10/16 00:58:20;;;;;;;6.40;3.72;;;12.20;99.90;;;;;;5009472;28;20077;-32
2022/10/16 01:00:46;;;;;;;4.97;3.20;;;12.20;99.90;;;;;;4993441;28;20036;-29
2022/10/16 01:03:33;;;;;;;8.45;4.03;;;12.20;99.90;;;;;;5017917;28;20068;-30
2022/10/16 01:06:24;;;;;;;7.25;3.42;;;12.20;99.90;;;;;;5006319;28;20034;-30
2022/10/16 01:09:16;;;;;;;4.78;3.30;;;12.20;99.90;;;;;;5008926;28;20029;-31
2022/10/16 01:12:06;;;;;;;7.13;3.35;;;12.20;99.90;;;;;;5022464;28;20037;-32
2022/10/16 01:14:43;;;;;;;5.28;3.72;;;12.10;99.90;;;;;;5017676;28;20041;-31
2022/10/16 01:17:22;;;;;;;6.65;3.88;;;12.10;99.90;;;;;;5000039;28;20042;-31
2022/10/16 01:20:10;;;;;;;3.72;3.25;;;12.10;99.90;;;;;;5008752;28;20479;-30
2022/10/16 01:22:39;;;;;;;6.25;3.50;;;12.10;99.90;;;;;;5011909;28;20033;-30
2022/10/16 01:25:12;;;;;;;6.05;3.80;;;12.10;99.90;;;;;;5006192;28;20045;-32
2022/10/16 01:27:39;;;;;;;;;;;12.10;99.90;;;;;;5009582;28;20037;-31
2022/10/16 01:30:20;;;;;;;8.77;3.67;;;12.10;99.90;;;;;;5015225;28;19916;-31
2022/10/16 01:32:57;;;;;;;5.15;3.90;;;12.20;99.90;;;;;;5007158;28;20033;-30
2022/10/16 01:35:34;;;;;;;8.13;3.60;;;12.10;99.90;;;;;;5014461;28;20033;-30
2022/10/16 01:38:26;;;;;;;7.70;3.75;;;12.10;99.90;;;;;;5010809;28;20033;-31
2022/10/16 01:41:00;;;;;;;6.93;3.95;;;12.20;99.90;;;;;;5008714;28;20044;-31
2022/10/16 01:43:31;;;;;;;4.78;3.80;;;12.10;99.90;;;;;;5013897;28;20390;-30
2022/10/16 01:45:59;;;;;;;4.15;3.58;;;12.10;99.90;;;;;;5007357;28;20081;-31
2022/10/16 01:48:25;;;;;;;5.22;3.55;;;12.10;99.90;;;;;;4999938;28;20048;-31
2022/10/16 01:51:17;;;;;;;7.85;4.07;;;12.10;99.90;;;;;;5006789;28;20487;-30
2022/10/16 01:53:48;;;;;;;4.43;4.00;;;12.00;99.90;;;;;;5008509;28;20041;-32
2022/10/16 01:56:16;;;;;;;6.32;4.03;;;12.00;99.90;;;;;;5025612;28;20499;-31
2022/10/16 01:58:48;;;;;;;5.70;3.95;;;12.00;99.90;;;;;;5002222;28;20044;-30
2022/10/16 02:01:17;;;;;;;7.35;3.70;;;12.10;99.90;;;;;;5014935;28;20111;-31
2022/10/16 02:03:44;;;;;;;6.65;4.07;;;12.10;99.90;;;;;;4999536;28;20042;-30
2022/10/16 02:06:11;;;;;;;6.15;4.32;;;12.10;99.90;;;;;;5000530;28;20563;-30
2022/10/16 02:08:38;;;;;;;6.43;3.97;;;12.10;99.90;;;;;;4995808;28;20037;-31
2022/10/16 02:11:04;;;;;;;4.68;3.55;;;12.10;99.90;;;;;;5011581;28;20033;-31
2022/10/16 02:13:37;;;;;;;6.45;4.00;;;12.20;99.90;;;;;;4988582;28;20049;-29
2022/10/16 02:16:03;;;;;;;4.75;3.72;;;12.20;99.90;;;;;;5014275;28;20434;-30
2022/10/16 02:18:30;;;;;;;5.85;3.28;;;12.20;99.90;;;;;;5033832;28;20036;-30
2022/10/16 02:21:10;;;;;;;4.22;3.40;;;12.20;99.90;;;;;;5013068;28;20037;-31
2022/10/16 02:23:59;;;;;;;6.13;3.90;;;12.20;99.90;;;;;;5016052;28;20168;-32
2022/10/16 02:26:41;;;;;;;7.60;3.70;;;12.30;99.90;;;;;;5009315;28;20037;-31
2022/10/16 02:29:11;;;;;;;5.13;3.42;;;12.30;99.90;;;;;;5013556;28;20038;-30
2022/10/16 02:31:41;;;;;;;5.95;3.88;;;12.30;99.90;;;;;;5004729;28;20041;-32
2022/10/16 02:34:11;;;;;;;4.28;3.47;;;12.30;99.90;;;;;;5008892;28;20495;-31
2022/10/16 02:36:38;;;;;;;5.82;3.50;;;12.30;99.90;;;;;;5001887;28;20056;-31
2022/10/16 02:39:04;;;;;;;4.75;3.28;;;12.40;99.90;;;;;;5007732;28;20034;-30
2022/10/16 02:41:30;;;;;;;5.50;3.40;;;12.40;99.90;;;;;;5016797;28;20038;-31
2022/10/16 02:43:56;;;;;;;6.40;3.60;;;12.40;99.90;;;;;;5000327;28;20080;-30
2022/10/16 02:46:22;;;;;;;4.72;3.33;;;12.40;99.90;;;;;;5001994;28;20530;-30
2022/10/16 02:48:48;;;;;;;6.35;3.40;;;12.40;99.90;;;;;;5007684;28;20034;-31
2022/10/16 02:51:14;;;;;;;5.07;3.17;;;12.50;99.90;;;;;;5010054;28;20037;-30
2022/10/16 02:53:39;;;;;;;7.47;3.30;;;12.50;99.90;;;;;;5008380;28;20045;-30
2022/10/16 02:56:05;;;;;;;6.10;3.25;;;12.50;99.90;;;;;;5000657;28;20042;-31
2022/10/16 02:58:31;;;;;;;5.40;3.50;;;12.60;99.90;;;;;;5004321;28;20214;-31
2022/10/16 03:00:57;;;;;;;5.45;3.28;;;12.60;99.90;;;;;;5018688;28;20045;-31
2022/10/16 03:03:22;;;;;;;4.88;3.17;;;12.70;99.90;;;;;;5012017;28;20527;-31
2022/10/16 03:05:48;;;;;;;5.13;3.00;;;12.70;99.90;;;;;;5018714;28;20121;-31
2022/10/16 03:08:14;;;;;;;3.97;3.30;;;12.70;99.90;;;;;;4999096;28;20401;-32
2022/10/16 03:10:40;;;;;;;4.18;2.60;;;12.70;99.90;;;;;;5003978;28;20473;-31
2022/10/16 03:13:05;;;;;;;3.85;2.65;;;12.80;99.90;;;;;;4990523;28;20046;-29
2022/10/16 03:15:31;;;;;;;4.20;2.90;;;12.80;99.90;;;;;;5012809;28;20125;-30
2022/10/16 03:18:00;;;;;;;3.92;2.67;;;12.80;99.90;;;;;;5018582;28;20125;-30
2022/10/16 03:20:26;;;;;;;3.25;2.42;;;12.90;99.90;;;;;;5003226;28;20038;-31
2022/10/16 03:22:52;;;;;;;3.25;2.45;;;13.00;99.90;;;;;;5042048;28;20536;-31
2022/10/16 03:25:18;;;;;;;2.58;2.33;;;13.00;99.90;;;;;;5009865;28;20041;-30
2022/10/16 03:27:43;;;;;;;5.07;2.70;;;13.00;99.90;;;;;;5017685;28;20487;-30
2022/10/16 03:30:10;;;;;;;5.22;2.80;;;13.00;99.90;;;;;;5008559;28;20034;-30
2022/10/16 03:32:35;;;;;;;4.30;2.58;;;13.00;99.90;;;;;;5011487;28;20570;-30
2022/10/16 03:35:01;;;;;;;4.32;3.00;;;13.00;99.90;;;;;;5013197;28;20037;-31
2022/10/16 03:37:27;;;;;;;5.82;3.42;;;13.00;99.90;;;;;;5010380;28;20037;-30
2022/10/16 03:39:53;;;;;;;3.58;3.28;;;13.00;99.90;;;;;;5014585;28;20060;-31
2022/10/16 03:42:19;;;;;;;3.22;2.65;;;13.00;99.90;;;;;;5006185;28;20128;-29
2022/10/16 03:44:44;;;;;;;4.88;2.63;;;13.00;99.90;;;;;;5000122;28;20041;-31
2022/10/16 03:47:10;;;;;;;4.97;3.15;;;13.00;99.90;;;;;;5042475;28;20559;-31
2022/10/16 03:49:36;;;;;;;6.82;3.25;;;13.10;99.90;;;;;;5025738;28;20037;-32
2022/10/16 03:52:02;;;;;;;5.32;3.03;;;13.00;99.90;;;;;;5020600;28;20126;-31
2022/10/16 03:54:27;;;;;;;4.05;3.25;;;13.10;99.90;;;;;;5034482;28;20509;-30
2022/10/16 03:56:53;;;;;;;5.18;3.60;;;13.10;99.90;;;;;;5015254;28;20038;-31
2022/10/16 03:59:19;;;;;;;5.38;3.83;;;13.00;99.90;;;;;;5017390;28;20045;-31
2022/10/16 04:01:45;;;;;;;4.97;3.03;;;13.00;99.90;;;;;;4997937;28;20069;-31
2022/10/16 04:04:10;;;;;;;4.80;3.60;;;13.00;99.90;;;;;;5007861;28;20498;-30
2022/10/16 04:06:36;;;;;;;3.75;3.25;;;13.00;99.90;;;;;;4989200;28;20042;-31
2022/10/16 04:09:02;;;;;;;5.70;4.05;;;13.00;99.90;;;;;;5006077;28;20049;-30
2022/10/16 04:11:28;;;;;;;5.78;3.78;;;13.00;99.90;;;;;;5023267;28;20488;-30
2022/10/16 04:13:53;;;;;;;5.10;4.10;;;12.90;99.90;;;;;;5001577;28;20049;-32
2022/10/16 04:16:20;;;;;;;5.30;4.10;;;12.90;99.90;;;;;;5039645;28;20041;-31
2022/10/16 04:18:45;;;;;;;5.10;3.63;;;12.90;99.90;;;;;;5011012;28;20073;-32
2022/10/16 04:21:11;;;;;;;5.25;4.28;;;12.80;99.90;;;;;;5001608;28;20069;-30
2022/10/16 04:23:37;;;;;;;4.93;4.13;;;12.80;99.90;;;;;;5007959;28;20453;-32
2022/10/16 04:26:03;;;;;;;5.13;4.63;;;12.80;99.90;;;;;;5012192;28;20109;-30
2022/10/16 04:28:29;;;;;;;5.38;4.28;;;12.80;99.90;;;;;;4997318;28;20041;-30
2022/10/16 04:30:55;;;;;;;4.72;3.97;;;12.80;99.90;;;;;;5028529;28;20063;-31
2022/10/16 04:33:20;;;;;;;5.28;3.97;;;12.80;99.90;;;;;;5004202;28;20092;-30
2022/10/16 04:35:46;;;;;;;4.82;4.28;;;12.70;99.90;;;;;;5016495;28;20076;-30
2022/10/16 04:38:12;;;;;;;6.47;4.13;;;12.70;99.90;;;;;;5007058;28;20029;-32
2022/10/16 04:40:38;;;;;;;8.07;3.97;;;12.70;99.90;;;;;;5011592;28;20464;-30
2022/10/16 04:43:04;;;;;;;6.28;4.00;;;12.70;99.90;;;;;;5008914;28;20411;-30
2022/10/16 04:45:30;;;;;;;4.85;4.20;;;12.70;99.90;;;;;;5031607;28;20048;-33
2022/10/16 04:47:59;;;;;;;5.65;3.92;;;12.70;99.90;;;;;;5015511;28;20505;-30
2022/10/16 04:50:25;;;;;;;5.40;4.90;;;12.70;99.90;;;;;;5005895;28;20037;-31
2022/10/16 04:52:51;;;;;;;4.40;4.00;;;12.70;99.90;;;;;;5020325;28;20045;-32
2022/10/16 04:55:17;;;;;;;5.75;4.47;;;12.70;99.90;;;;;;5017527;28;20036;-30
2022/10/16 04:57:42;;;;;;;6.50;4.75;;;12.70;99.90;;;;;;5010977;28;20038;-30
2022/10/16 05:00:09;;;;;;;4.88;4.30;;;12.70;99.90;;;;;;5005635;28;20048;-32
2022/10/16 05:02:35;;;;;;;5.40;4.50;;;12.70;99.90;;;;;;5010484;28;20038;-31
2022/10/16 05:05:00;;;;;;;4.68;4.28;;;12.60;99.90;;;;;;5016043;28;20513;-33
2022/10/16 05:07:26;;;;;;;5.47;4.43;;;12.70;99.90;;;;;;5010449;28;20117;-30
2022/10/16 05:09:53;;;;;;;5.93;4.57;;;12.60;99.90;;;;;;5009317;28;20099;-31
2022/10/16 05:12:18;;;;;;;5.15;4.10;;;12.70;99.90;;;;;;5007130;28;20079;-31
2022/10/16 05:14:44;;;;;;;4.85;4.25;;;12.60;99.90;;;;;;5009351;28;20033;-30
2022/10/16 05:17:10;;;;;;;6.80;4.63;;;12.60;99.90;;;;;;5013036;28;20073;-33
2022/10/16 05:19:35;;;;;;;5.63;3.92;;;12.60;99.90;;;;;;5006885;28;20116;-31
2022/10/16 05:22:01;;;;;;;7.43;4.72;;;12.60;99.90;;;;;;5005576;28;20409;-30
2022/10/16 05:24:27;;;;;;;6.85;4.65;;;12.50;99.90;;;;;;5011422;28;20406;-31
2022/10/16 05:26:53;;;;;;;7.85;4.53;;;12.50;99.90;;;;;;5004016;28;20048;-30
2022/10/16 05:29:19;;;;;;;5.45;4.28;;;12.40;99.90;;;;;;5005861;28;20120;-30
2022/10/16 05:31:45;;;;;;;7.25;5.63;;;12.40;99.90;;;;;;5002979;28;20030;-30
2022/10/16 05:34:10;;;;;;;7.15;4.18;;;12.30;99.90;;;;;;5002286;28;20550;-31
2022/10/16 05:36:36;;;;;;;7.82;4.50;;;12.40;99.90;;;;;;5008739;28;20046;-31
2022/10/16 05:39:03;;;;;;;6.22;4.60;;;12.40;99.90;;;;;;5008255;28;20045;-30
2022/10/16 05:41:29;;;;;;;4.43;4.05;;;12.40;99.90;;;;;;4997629;28;20506;-29
2022/10/16 05:43:54;;;;;;;6.47;4.38;;;12.30;99.90;;;;;;5007877;28;20045;-30
2022/10/16 05:46:20;;;;;;;5.53;4.35;;;12.30;99.90;;;;;;5018298;28;20037;-31
2022/10/16 05:48:46;;;;;;;4.85;4.00;;;12.40;99.90;;;;;;5018326;28;20038;-30
2022/10/16 05:51:13;;;;;;;5.00;4.38;;;12.40;99.90;;;;;;5010588;28;20033;-31
2022/10/16 05:53:40;;;;;;;4.63;4.00;;;12.40;99.90;;;;;;5016662;28;20044;-31
2022/10/16 05:56:09;;;;;;;6.35;4.55;;;12.40;99.90;;;;;;5010753;28;20515;-31
2022/10/16 05:58:37;;;;;;;5.85;3.88;;;12.40;99.90;;;;;;5005518;28;20060;-31
2022/10/16 06:01:11;;;;;;;4.43;3.78;;;12.30;99.90;;;;;;5018080;28;20494;-31
2022/10/16 06:03:37;;;;;;;7.28;3.78;;;12.40;99.90;;;;;;4998969;28;20041;-30
2022/10/16 06:06:17;;;;;;;4.72;3.75;;;12.40;99.90;;;;;;5009510;28;20048;-30
2022/10/16 06:08:45;;;;;;;4.43;3.65;;;12.40;99.90;;;;;;5003604;28;20029;-30
2022/10/16 06:11:14;;;;;;;4.05;3.65;;;12.40;99.90;;;;;;5019959;28;20038;-31
2022/10/16 06:13:42;;;;;;;6.68;4.15;;;12.40;99.90;;;;;;5022414;28;20029;-31
2022/10/16 06:16:08;;;;;;;5.03;3.80;;;12.40;99.90;;;;;;5010728;28;20034;-30
2022/10/16 06:18:34;;;;;;;4.68;3.45;;;12.40;99.90;;;;;;5014470;28;20482;-30
2022/10/16 06:21:11;;;;;;;6.22;3.80;;;12.40;99.90;;;;;;5009707;28;20179;-30
2022/10/16 06:23:37;;;;;;;3.65;3.30;;;12.40;99.90;;;;;;5002639;28;20034;-32
2022/10/16 06:26:11;;;;;;;5.25;3.70;;;12.40;99.90;;;;;;5033979;28;20072;-31
2022/10/16 06:28:37;;;;;;;4.80;3.17;;;12.50;99.90;;;;;;5007549;28;20065;-30
2022/10/16 06:31:04;;;;;;;7.00;3.42;;;12.50;99.90;;;;;;5007780;28;20368;-30
2022/10/16 06:33:30;;;;;;;3.97;3.05;;;12.50;99.90;;;;;;5013249;28;20057;-31
2022/10/16 06:36:05;;;;;;;5.35;3.33;;;12.50;99.90;;;;;;5007090;28;20045;-31
2022/10/16 06:38:31;;;;;;;4.85;3.60;;;12.60;99.90;;;;;;5014777;28;20037;-30
2022/10/16 06:40:57;;;;;;;3.35;2.83;;;12.60;99.90;;;;;;5010060;28;20081;-31
2022/10/16 06:43:23;;;;;;;4.47;3.10;;;12.60;99.90;;;;;;5019027;28;20083;-31
2022/10/16 06:45:56;;;;;;;4.63;3.20;;;12.60;99.90;;;;;;5008172;28;20033;-30
2022/10/16 06:48:23;;;;;;;6.28;3.40;;;12.70;99.90;;;;;;5006492;28;20099;-30
2022/10/16 06:51:18;;;;;;;3.90;3.00;;;12.70;99.90;;;;;;5027096;28;20037;-31
2022/10/16 06:53:48;;;;;;;3.83;3.35;;;12.70;99.90;;;;;;5010559;28;20046;-30
2022/10/16 06:56:29;;;;;;;5.60;3.10;;;12.70;99.90;;;;;;5021618;28;20042;-31
2022/10/16 06:58:55;;;;;;;3.88;3.22;;;12.80;99.90;;;;;;5007622;28;20120;-32
2022/10/16 07:01:23;;;;;;;3.88;3.42;;;12.80;99.90;;;;;;5012973;28;20136;-30
2022/10/16 07:03:49;;;;;;;6.32;4.55;;;12.90;99.90;;;;;;5016519;28;20045;-30
2022/10/16 07:06:18;;;;;;;4.75;3.20;;;13.00;99.90;;;;;;5015943;28;20091;-30
2022/10/16 07:08:45;;;;;;;5.47;3.47;;;13.00;99.90;;;;;;5011608;28;20085;-31
2022/10/16 07:11:13;;;;;;;3.70;3.40;;;13.10;99.90;;;;;;5013492;28;20068;-30
2022/10/16 07:13:41;;;;;;;6.05;4.40;;;13.10;99.90;;;;;;5012478;28;20034;-31
2022/10/16 07:16:07;;;;;;;4.18;2.88;;;13.10;99.90;;;;;;5026726;28;20049;-31
2022/10/16 07:18:33;;;;;;;4.75;3.78;;;13.20;99.90;;;;;;5007226;28;20084;-31
2022/10/16 07:21:04;;;;;;;4.28;2.80;;;13.20;99.90;;;;;;5018797;28;20051;-29
2022/10/16 07:23:30;;;;;;;5.15;2.92;;;13.20;99.90;;;;;;4987737;28;20045;-30
2022/10/16 07:25:56;;;;;;;5.43;3.05;;;13.30;99.90;;;;;;5040108;28;20037;-32
2022/10/16 07:28:21;;;;;;;3.80;3.13;;;13.30;99.90;;;;;;5018034;28;20073;-31
2022/10/16 07:30:48;;;;;;;11.63;9.77;;;13.30;99.90;;;;;;5030903;28;20029;-31
2022/10/16 07:33:14;;;;;;;3.80;2.80;;;13.30;99.90;;;;;;5015746;28;20033;-32
2022/10/16 07:35:53;;;;;;;4.10;2.88;;;13.40;99.90;;;;;;5016575;28;20484;-33
2022/10/16 07:38:20;;;;;;;3.58;2.83;;;13.50;99.90;;;;;;5015327;28;20506;-30
2022/10/16 07:40:56;;;;;;;5.72;2.92;;;13.60;99.90;;;;;;5010451;28;20045;-32
2022/10/16 07:43:22;;;;;;;4.43;2.97;;;13.70;99.90;;;;;;5026286;28;20033;-32
2022/10/16 07:45:49;;;;;;;3.97;2.97;;;13.80;99.90;;;;;;5010184;28;20045;-30
2022/10/16 07:48:16;;;;;;;5.20;3.78;;;13.80;99.90;;;;;;5003963;28;20508;-32
2022/10/16 07:50:42;;;;;;;3.67;2.65;;;13.90;99.90;;;;;;5011535;28;20483;-32
2022/10/16 07:53:09;;;;;;;4.82;2.67;;;13.80;99.90;;;;;;5017453;28;20045;-30
2022/10/16 07:55:34;;;;;;;5.72;2.55;;;13.90;99.90;;;;;;5012208;28;20037;-31
2022/10/16 07:58:00;;;;;;;4.05;2.70;;;13.90;99.90;;;;;;5001791;28;20045;-32
2022/10/16 08:00:26;;;;;;;4.20;2.78;;;13.90;99.90;;;;;;5029123;28;20033;-32
2022/10/16 08:02:52;;;;;;;5.80;2.40;;;13.90;99.90;;;;;;5004791;28;20057;-30
2022/10/16 08:05:17;;;;;;;3.75;2.60;;;14.00;99.90;;;;;;5006774;28;20150;-31
2022/10/16 08:07:49;;;;;;;3.45;2.38;;;14.00;99.90;;;;;;5005011;28;20067;-30
2022/10/16 08:10:20;;;;;;;3.83;2.20;;;14.00;99.90;;;;;;5012818;28;20128;-31
2022/10/16 08:12:46;;;;;;;3.42;2.30;;;14.10;99.90;;;;;;5009184;28;20045;-31
2022/10/16 08:15:11;;;;;;;4.47;2.20;;;14.10;99.90;;;;;;5007973;28;20044;-30
2022/10/16 08:17:37;;;;;;;4.00;2.53;;;14.20;99.90;;;;;;5011820;28;20423;-32
2022/10/16 08:20:07;;;;;;;3.47;2.40;;;14.30;99.90;;;;;;5027794;28;20045;-32
2022/10/16 08:22:32;;;;;;;5.35;2.08;;;14.40;99.90;;;;;;5028842;28;20039;-31
2022/10/16 08:24:58;;;;;;;2.95;1.95;;;14.40;99.90;;;;;;5008948;28;20041;-32
2022/10/16 08:27:24;;;;;;;2.75;2.35;;;14.40;99.90;;;;;;5008047;28;20069;-31
2022/10/16 08:29:50;;;;;;;4.05;2.65;;;14.50;99.90;;;;;;5009106;28;20044;-31
2022/10/16 08:32:16;;;;;;;2.88;2.00;;;14.50;99.90;;;;;;5008133;28;20044;-31
2022/10/16 08:34:41;;;;;;;2.75;2.00;;;14.60;99.90;;;;;;5014223;28;20041;-31
2022/10/16 08:37:10;;;;;;;5.78;2.47;;;14.70;99.90;;;;;;5008539;28;20124;-31
2022/10/16 08:39:36;;;;;;;4.38;2.80;;;14.80;99.90;;;;;;5012609;28;20120;-30
2022/10/16 08:42:21;;;;;;;4.03;2.60;;;14.90;99.90;;;;;;5012897;28;20148;-31
2022/10/16 08:45:07;;;;;;;3.60;2.20;;;15.00;99.90;;;;;;5012622;28;20045;-32
2022/10/16 08:48:01;;;;;;;3.30;2.03;;;15.10;99.90;;;;;;5010208;28;20044;-31
2022/10/16 08:50:29;;;;;;;4.70;1.90;;;15.30;99.90;;;;;;5009700;28;20094;-32
2022/10/16 08:52:56;;;;;;;3.60;2.72;;;15.50;99.90;;;;;;5015729;28;20383;-32
2022/10/16 08:55:42;;;;;;;4.15;2.05;;;15.60;99.90;;;;;;5011078;28;20036;-31
2022/10/16 08:58:14;;;;;;;5.05;2.53;;;15.70;99.90;;;;;;5015603;28;20398;-32
2022/10/16 09:00:41;;;;;;;5.40;2.25;;;15.80;99.90;;;;;;5003398;28;20038;-32
2022/10/16 09:03:17;;;;;;;5.10;2.80;;;15.90;99.90;;;;;;5024856;28;20108;-30
2022/10/16 09:06:09;;;;;;;3.20;2.90;;;16.30;99.90;;;;;;5010216;28;20042;-30
2022/10/16 09:08:38;;;;;;;2.47;1.73;;;16.70;99.90;;;;;;4983720;28;20053;-31
2022/10/16 09:11:12;;;;;;;3.25;1.90;;;17.10;99.90;;;;;;5010918;28;20049;-33
2022/10/16 09:14:17;;;;;;;2.80;2.20;;;17.60;99.90;;;;;;5006969;28;20091;-32
2022/10/16 09:16:51;;;;;;;5.35;2.15;;;18.10;99.90;;;;;;4990498;28;20046;-31
2022/10/16 09:19:25;;;;;;;5.15;2.38;;;18.60;99.90;;;;;;5022692;28;20447;-31
2022/10/16 09:21:52;;;;;;;5.32;2.38;;;18.90;99.90;;;;;;5008800;28;20029;-33
2022/10/16 09:24:21;;;;;;;6.55;2.28;;;19.30;99.90;;;;;;5003550;28;20402;-31
2022/10/16 09:26:47;;;;;;;6.13;2.85;;;19.50;99.90;;;;;;5013851;28;20038;-32
2022/10/16 09:29:21;;;;;;;3.20;1.60;;;19.70;99.90;;;;;;5004825;28;20045;-31
2022/10/16 09:31:47;;;;;;;6.10;1.90;;;19.80;99.90;;;;;;5012294;28;20081;-32
2022/10/16 09:34:34;;;;;;;4.18;1.70;;;20.00;99.90;;;;;;4993438;28;20052;-33
2022/10/16 09:37:03;;;;;;;4.80;2.08;;;20.30;99.90;;;;;;5027645;28;20061;-32
2022/10/16 09:39:33;;;;;;;3.63;1.55;;;20.40;99.90;;;;;;4997533;28;20037;-31
2022/10/16 09:42:09;;;;;;;5.65;1.70;;;20.30;99.90;;;;;;5013467;28;20475;-34
2022/10/16 09:44:35;;;;;;;3.60;1.80;;;20.70;99.90;;;;;;5033022;28;20045;-29
2022/10/16 09:47:11;;;;;;;5.78;2.08;;;20.80;99.90;;;;;;5015724;28;20053;-29
2022/10/16 09:49:37;;;;;;;5.95;1.83;;;20.60;99.90;;;;;;5015501;28;20049;-29
2022/10/16 09:52:13;;;;;;;4.18;1.55;;;20.50;99.90;;;;;;5015261;28;20041;-29
2022/10/16 09:54:53;;;;;;;7.13;1.70;;;20.50;99.90;;;;;;5015752;28;20509;-28
2022/10/16 09:57:20;;;;;;;5.18;1.80;;;20.50;99.90;;;;;;5033711;28;20103;-30
2022/10/16 09:59:51;;;;;;;4.95;1.60;;;20.30;99.90;;;;;;5016026;28;20168;-29
2022/10/16 10:02:23;;;;;;;4.60;1.73;;;20.30;99.90;;;;;;5015808;28;20041;-29
2022/10/16 10:04:57;;;;;;;9.75;2.20;;;20.60;99.90;;;;;;5015732;28;20056;-29
2022/10/16 10:07:32;;;;;;;4.63;2.13;;;21.00;99.90;;;;;;5016080;28;20483;-30
2022/10/16 10:09:58;;;;;;;6.53;2.78;;;21.10;99.90;;;;;;5016077;28;20049;-29
2022/10/16 10:12:25;;;;;;;4.05;2.50;;;21.40;99.90;;;;;;5033155;28;20064;-30
2022/10/16 10:15:12;;;;;;;5.63;2.28;;;21.70;99.90;;;;;;5015173;28;20037;-30
2022/10/16 10:17:54;;;;;;;4.60;1.73;;;21.90;99.90;;;;;;5015493;28;20041;-30
2022/10/16 10:20:34;;;;;;;5.15;1.83;;;22.00;99.90;;;;;;5015655;28;20139;-29
2022/10/16 10:23:01;;;;;;;7.95;1.77;;;22.40;99.90;;;;;;4993293;28;20038;-29
2022/10/16 10:25:49;;;;;;;8.10;2.42;;;22.30;99.90;;;;;;4996994;28;20128;-29
2022/10/16 10:28:37;;;;;;;6.57;2.10;;;22.30;99.90;;;;;;4995595;28;20038;-29
2022/10/16 10:31:23;;;;;;;5.85;2.47;;;22.20;99.90;;;;;;5012191;28;20124;-29
2022/10/16 10:34:23;;;;;;;5.90;2.70;;;22.00;99.90;;;;;;5015473;28;20490;-29
2022/10/16 10:37:02;;;;;;;5.32;2.40;;;22.10;99.90;;;;;;4995877;28;20041;-29
2022/10/16 10:39:43;;;;;;;8.18;2.80;;;22.20;99.90;;;;;;4997184;28;20045;-29
2022/10/16 10:42:12;;;;;;;6.43;1.98;;;21.80;99.90;;;;;;4999635;28;20049;-29
2022/10/16 10:45:17;;;;;;;6.85;2.30;;;21.90;99.90;;;;;;5000152;28;20398;-29
2022/10/16 10:48:22;;;;;;;5.97;1.90;;;22.30;99.90;;;;;;5012547;28;20041;-29
2022/10/16 10:50:47;;;;;;;5.03;1.60;;;22.30;99.90;;;;;;5007242;28;20136;-29
2022/10/16 10:53:32;;;;;;;4.65;1.85;;;21.70;99.90;;;;;;4999506;28;20081;-29
2022/10/16 10:56:22;;;;;;;6.03;2.03;;;21.00;99.90;;;;;;5000045;28;20476;-28
2022/10/16 10:58:51;;;;;;;6.50;1.85;;;20.60;99.90;;;;;;5000179;28;20129;-29
2022/10/16 11:01:26;;;;;;;5.75;2.08;;;20.90;99.90;;;;;;4999561;28;20070;-29
2022/10/16 11:04:37;;;;;;;8.25;2.03;;;21.20;99.90;;;;;;5010693;28;20046;-29
2022/10/16 11:07:36;;;;;;;6.18;1.58;;;21.40;99.90;;;;;;4965846;28;20046;-28
2022/10/16 11:10:22;;;;;;;8.95;2.30;;;21.30;96.30;;;;;;4971114;28;20104;-29
2022/10/16 11:12:58;;;;;;;9.38;1.85;;;20.80;99.90;;;;;;4995204;28;20038;-30
2022/10/16 11:15:37;;;;;;;8.32;2.38;;;20.20;99.90;;;;;;4996515;28;20033;-29
2022/10/16 11:18:32;;;;;;;6.82;1.98;;;19.80;99.90;;;;;;4995868;28;20038;-29
2022/10/16 11:21:04;;;;;;;8.70;2.63;;;20.00;99.90;;;;;;4996185;28;20545;-29
2022/10/16 11:23:33;;;;;;;8.35;2.13;;;20.50;99.90;;;;;;5005565;28;20549;-29
2022/10/16 11:26:04;;;;;;;6.72;2.95;;;20.90;99.90;;;;;;5034387;28;20045;-29
2022/10/16 11:28:35;;;;;;;5.53;2.25;;;21.00;99.90;;;;;;5017671;28;20073;-29
2022/10/16 11:31:13;;;;;;;6.25;2.03;;;21.30;99.90;;;;;;5017663;28;20054;-29
2022/10/16 11:33:57;;;;;;;7.82;1.95;;;21.10;92.40;;;;;;5017632;28;20179;-29
2022/10/16 11:36:33;;;;;;;8.15;2.10;;;20.80;97.80;;;;;;5014548;28;20049;-28
2022/10/16 11:39:22;;;;;;;5.70;2.05;;;21.00;98.50;;;;;;5011972;28;20673;-30
2022/10/16 11:42:11;;;;;;;7.97;6.88;;;21.10;92.80;;;;;;5010667;28;20045;-30
2022/10/16 11:44:43;;;;;;;6.47;1.70;;;21.30;85.80;;;;;;5012932;28;20042;-30
2022/10/16 11:47:20;;;;;;;7.88;2.65;;;21.60;95.20;;;;;;5012484;28;20398;-29
2022/10/16 11:49:57;;;;;;;7.07;2.72;;;21.60;92.80;;;;;;5012330;28;20088;-29
2022/10/16 11:52:30;;;;;;;9.75;4.30;;;21.60;95.00;;;;;;5011715;28;20070;-29
2022/10/16 11:54:56;;;;;;;;;;;21.50;96.60;;;;;;5014725;28;20040;-29
2022/10/16 11:57:27;;;;;;;8.27;2.72;;;21.40;93.60;;;;;;5046718;28;20013;-29
2022/10/16 12:00:08;;;;;;;11.23;4.57;;;21.70;99.00;;;;;;5013746;28;20037;-29
2022/10/16 12:02:57;;;;;;;9.60;3.97;;;22.00;99.90;;;;;;5013810;28;20498;-30
2022/10/16 12:05:41;;;;;;;7.22;4.28;;;22.50;84.20;;;;;;4997253;28;20107;-29
2022/10/16 12:08:11;;;;;;;7.13;2.95;;;23.10;88.90;;;;;;4997737;28;20042;-29
2022/10/16 12:10:38;;;;;;;12.15;6.85;;;23.60;82.50;;;;;;5008080;28;20124;-29
2022/10/16 12:13:24;;;;;;;5.18;2.40;;;23.90;74.60;;;;;;5024658;28;20076;-29
2022/10/16 12:15:49;;;;;;;22.67;14.18;;;24.40;68.70;;;;;;4997116;28;20034;-29
2022/10/16 12:18:23;;;;;;;7.13;3.65;;;24.50;63.40;;;;;;5028911;28;20048;-29
2022/10/16 12:21:04;;;;;;;11.55;3.42;;;23.90;65.00;;;;;;5005136;28;20065;-29
2022/10/16 12:23:31;;;;;;;8.50;2.63;;;24.30;67.50;;;;;;5015794;28;20072;-29
2022/10/16 12:26:02;;;;;;;8.10;3.95;;;24.60;65.60;;;;;;5016851;28;20051;-29
2022/10/16 12:28:31;;;;;;;8.43;3.15;;;25.10;59.40;;;;;;5014968;28;20228;-29
2022/10/16 12:31:08;;;;;;;9.20;4.10;;;25.90;57.60;;;;;;5016451;28;20045;-29
2022/10/16 12:33:41;;;;;;;7.25;2.80;;;25.70;53.40;;;;;;5016585;28;20040;-29
2022/10/16 12:36:16;;;;;;;6.75;3.13;;;25.70;51.20;;;;;;5015465;28;20046;-28
2022/10/16 12:38:51;;;;;;;7.28;3.10;;;25.40;53.50;;;;;;5016707;28;20402;-29
2022/10/16 12:41:27;;;;;;;7.75;4.13;;;25.70;55.00;;;;;;5016384;28;20112;-29
2022/10/16 12:43:53;;;;;;;6.75;2.30;;;25.90;51.30;;;;;;5016190;28;20088;-29
2022/10/16 12:46:19;;;;;;;13.27;6.50;;;25.90;53.10;;;;;;5016472;28;20045;-29
2022/10/16 12:48:46;;;;;;;11.13;6.15;;;25.80;53.50;;;;;;5016500;28;20037;-30
2022/10/16 12:51:27;;;;;;;8.07;2.92;;;25.30;53.00;;;;;;5033507;28;20041;-28
2022/10/16 12:54:01;;;;;;;8.98;3.47;;;25.10;52.00;;;;;;5033441;28;20108;-29
2022/10/16 12:56:51;;;;;;;8.15;4.28;;;24.60;53.70;;;;;;5016032;28;20386;-30
2022/10/16 12:59:42;;;;;;;8.57;4.28;;;24.30;54.30;;;;;;5015916;28;20475;-29
2022/10/16 13:02:35;;;;;;;11.00;5.45;;;24.50;52.70;;;;;;5015233;28;20030;-28
2022/10/16 13:05:28;;;;;;;11.30;3.67;;;24.90;56.80;;;;;;5032154;28;20049;-28
2022/10/16 13:08:25;;;;;;;13.05;7.75;;;25.60;54.10;;;;;;5006011;28;20115;-29
2022/10/16 13:11:00;;;;;;;4.32;1.80;;;26.20;52.60;;;;;;4998989;28;20068;-28